Macclesfield, United Kingdom
Current Conditions -  °F | °C
As of 9:50 AM on Friday 19 Dec 2014 (Local Time) from EGCC Reporting Station
Rain Showers Rain Showers  
Wind Chill:   Ceiling: Unl
Heat Index:   Visibility: 6mi
Dew Point:   Wind: 14mph
Humidity: 81%   Direction: 250°WSW
Pressure: 29.85"   Gusts: NA
Location:  53.26°N, 2.13°W
Report Text: EGCC 190950Z 25012KT 9999 VCSH FEW020CB SCT031 06/03 Q1011 TEMPO SHRA
Loading
Personal Weather Stations






























Interactive Weather Map New forecast layout! Learn more

10-Day Weather Forecast

Advertisements
Track Severe Weather on mobile